sensor_id;sensor_type;location;lat;lon;timestamp;P1;durP1;ratioP1;P2;durP2;ratioP2
78430;SDS011;67727;50.236;22.452;2024-01-30T00:02:17;47.10;;;19.80;;
78430;SDS011;67727;50.236;22.452;2024-01-30T00:04:43;49.80;;;21.20;;
78430;SDS011;67727;50.236;22.452;2024-01-30T00:07:10;45.50;;;21.70;;
78430;SDS011;67727;50.236;22.452;2024-01-30T00:09:38;38.50;;;19.30;;
78430;SDS011;67727;50.236;22.452;2024-01-30T00:12:08;42.30;;;21.20;;
78430;SDS011;67727;50.236;22.452;2024-01-30T00:14:35;46.80;;;21.70;;
78430;SDS011;67727;50.236;22.452;2024-01-30T00:17:02;44.50;;;20.70;;
78430;SDS011;67727;50.236;22.452;2024-01-30T00:19:28;39.50;;;20.40;;
78430;SDS011;67727;50.236;22.452;2024-01-30T00:21:55;46.50;;;21.50;;
78430;SDS011;67727;50.236;22.452;2024-01-30T00:24:22;46.80;;;21.70;;
78430;SDS011;67727;50.236;22.452;2024-01-30T00:26:49;39.50;;;19.30;;
78430;SDS011;67727;50.236;22.452;2024-01-30T00:29:16;40.30;;;19.20;;
78430;SDS011;67727;50.236;22.452;2024-01-30T00:31:45;44.80;;;19.30;;
78430;SDS011;67727;50.236;22.452;2024-01-30T00:34:13;45.20;;;20.20;;
78430;SDS011;67727;50.236;22.452;2024-01-30T00:36:40;35.10;;;17.30;;
78430;SDS011;67727;50.236;22.452;2024-01-30T00:39:07;40.40;;;19.10;;
78430;SDS011;67727;50.236;22.452;2024-01-30T00:41:35;37.60;;;19.50;;
78430;SDS011;67727;50.236;22.452;2024-01-30T00:44:02;43.10;;;19.40;;
78430;SDS011;67727;50.236;22.452;2024-01-30T00:46:29;35.10;;;20.10;;
78430;SDS011;67727;50.236;22.452;2024-01-30T00:48:56;38.50;;;19.30;;
78430;SDS011;67727;50.236;22.452;2024-01-30T00:51:23;37.70;;;18.50;;
78430;SDS011;67727;50.236;22.452;2024-01-30T00:53:50;41.80;;;19.70;;
78430;SDS011;67727;50.236;22.452;2024-01-30T00:56:17;32.70;;;15.60;;
78430;SDS011;67727;50.236;22.452;2024-01-30T00:58:45;40.20;;;21.00;;
78430;SDS011;67727;50.236;22.452;2024-01-30T01:01:11;47.40;;;21.80;;
78430;SDS011;67727;50.236;22.452;2024-01-30T01:03:39;45.90;;;19.50;;
78430;SDS011;67727;50.236;22.452;2024-01-30T01:06:07;42.90;;;19.90;;
78430;SDS011;67727;50.236;22.452;2024-01-30T01:08:35;37.90;;;20.00;;
78430;SDS011;67727;50.236;22.452;2024-01-30T01:11:02;41.90;;;20.20;;
78430;SDS011;67727;50.236;22.452;2024-01-30T01:15:57;42.80;;;19.30;;
78430;SDS011;67727;50.236;22.452;2024-01-30T01:18:23;37.30;;;17.90;;
78430;SDS011;67727;50.236;22.452;2024-01-30T01:20:50;40.80;;;18.80;;
78430;SDS011;67727;50.236;22.452;2024-01-30T01:23:17;38.50;;;20.10;;
78430;SDS011;67727;50.236;22.452;2024-01-30T01:25:45;23.70;;;12.30;;
78430;SDS011;67727;50.236;22.452;2024-01-30T01:28:12;35.40;;;17.40;;
78430;SDS011;67727;50.236;22.452;2024-01-30T01:30:39;37.50;;;17.50;;
78430;SDS011;67727;50.236;22.452;2024-01-30T01:33:06;36.50;;;17.80;;
78430;SDS011;67727;50.236;22.452;2024-01-30T01:35:33;30.90;;;15.60;;
78430;SDS011;67727;50.236;22.452;2024-01-30T01:38:00;31.70;;;16.30;;
78430;SDS011;67727;50.236;22.452;2024-01-30T01:40:27;35.50;;;17.00;;
78430;SDS011;67727;50.236;22.452;2024-01-30T01:42:55;34.10;;;18.50;;
78430;SDS011;67727;50.236;22.452;2024-01-30T01:45:22;37.20;;;17.40;;
78430;SDS011;67727;50.236;22.452;2024-01-30T01:47:52;33.60;;;15.40;;
78430;SDS011;67727;50.236;22.452;2024-01-30T01:50:20;36.00;;;19.30;;
78430;SDS011;67727;50.236;22.452;2024-01-30T01:52:48;30.40;;;17.00;;
78430;SDS011;67727;50.236;22.452;2024-01-30T01:55:17;36.10;;;16.80;;
78430;SDS011;67727;50.236;22.452;2024-01-30T01:57:48;37.90;;;17.00;;
78430;SDS011;67727;50.236;22.452;2024-01-30T02:00:15;32.40;;;16.20;;
78430;SDS011;67727;50.236;22.452;2024-01-30T02:02:43;38.20;;;19.20;;
78430;SDS011;67727;50.236;22.452;2024-01-30T02:05:12;37.50;;;18.80;;
78430;SDS011;67727;50.236;22.452;2024-01-30T02:07:39;40.10;;;20.90;;
78430;SDS011;67727;50.236;22.452;2024-01-30T02:12:34;34.30;;;16.30;;
78430;SDS011;67727;50.236;22.452;2024-01-30T02:15:01;34.60;;;16.20;;
78430;SDS011;67727;50.236;22.452;2024-01-30T02:17:28;37.50;;;18.50;;
78430;SDS011;67727;50.236;22.452;2024-01-30T02:19:55;32.90;;;16.10;;
78430;SDS011;67727;50.236;22.452;2024-01-30T02:22:22;36.60;;;17.60;;
78430;SDS011;67727;50.236;22.452;2024-01-30T02:24:50;36.10;;;19.20;;
78430;SDS011;67727;50.236;22.452;2024-01-30T02:27:16;45.00;;;20.80;;
78430;SDS011;67727;50.236;22.452;2024-01-30T02:29:43;44.60;;;20.60;;
78430;SDS011;67727;50.236;22.452;2024-01-30T02:32:10;39.60;;;19.30;;
78430;SDS011;67727;50.236;22.452;2024-01-30T02:34:37;41.60;;;20.30;;
78430;SDS011;67727;50.236;22.452;2024-01-30T02:37:04;41.90;;;19.70;;
78430;SDS011;67727;50.236;22.452;2024-01-30T02:39:30;41.30;;;20.70;;
78430;SDS011;67727;50.236;22.452;2024-01-30T02:41:57;41.60;;;19.80;;
78430;SDS011;67727;50.236;22.452;2024-01-30T02:44:24;39.00;;;18.90;;
78430;SDS011;67727;50.236;22.452;2024-01-30T02:46:51;37.70;;;20.90;;
78430;SDS011;67727;50.236;22.452;2024-01-30T02:49:20;37.30;;;18.40;;
78430;SDS011;67727;50.236;22.452;2024-01-30T02:51:47;37.90;;;18.60;;
78430;SDS011;67727;50.236;22.452;2024-01-30T02:54:14;32.40;;;17.10;;
78430;SDS011;67727;50.236;22.452;2024-01-30T02:56:41;32.30;;;17.80;;
78430;SDS011;67727;50.236;22.452;2024-01-30T02:59:08;36.20;;;18.40;;
78430;SDS011;67727;50.236;22.452;2024-01-30T03:01:42;40.70;;;18.20;;
78430;SDS011;67727;50.236;22.452;2024-01-30T03:04:09;42.30;;;19.20;;
78430;SDS011;67727;50.236;22.452;2024-01-30T03:06:37;34.60;;;16.50;;
78430;SDS011;67727;50.236;22.452;2024-01-30T03:09:04;39.50;;;17.90;;
78430;SDS011;67727;50.236;22.452;2024-01-30T03:11:31;38.60;;;17.80;;
78430;SDS011;67727;50.236;22.452;2024-01-30T03:13:58;36.90;;;18.00;;
78430;SDS011;67727;50.236;22.452;2024-01-30T03:16:25;37.00;;;18.90;;
78430;SDS011;67727;50.236;22.452;2024-01-30T03:18:52;32.10;;;16.30;;
78430;SDS011;67727;50.236;22.452;2024-01-30T03:21:19;32.40;;;18.00;;
78430;SDS011;67727;50.236;22.452;2024-01-30T03:23:46;36.30;;;17.60;;
78430;SDS011;67727;50.236;22.452;2024-01-30T03:26:13;29.40;;;16.90;;
78430;SDS011;67727;50.236;22.452;2024-01-30T03:28:41;28.10;;;15.00;;
78430;SDS011;67727;50.236;22.452;2024-01-30T03:31:08;32.30;;;15.40;;
78430;SDS011;67727;50.236;22.452;2024-01-30T03:33:36;24.90;;;14.80;;
78430;SDS011;67727;50.236;22.452;2024-01-30T03:36:04;31.20;;;15.70;;
78430;SDS011;67727;50.236;22.452;2024-01-30T03:38:31;28.50;;;15.10;;
78430;SDS011;67727;50.236;22.452;2024-01-30T03:41:01;35.40;;;16.20;;
78430;SDS011;67727;50.236;22.452;2024-01-30T03:43:28;32.90;;;17.40;;
78430;SDS011;67727;50.236;22.452;2024-01-30T03:45:55;26.00;;;15.20;;
78430;SDS011;67727;50.236;22.452;2024-01-30T03:48:21;33.50;;;16.20;;
78430;SDS011;67727;50.236;22.452;2024-01-30T03:50:48;32.40;;;15.00;;
78430;SDS011;67727;50.236;22.452;2024-01-30T03:53:15;29.30;;;14.70;;
78430;SDS011;67727;50.236;22.452;2024-01-30T03:55:42;30.70;;;15.60;;
78430;SDS011;67727;50.236;22.452;2024-01-30T03:58:09;29.70;;;14.70;;
78430;SDS011;67727;50.236;22.452;2024-01-30T04:00:35;30.80;;;16.10;;
78430;SDS011;67727;50.236;22.452;2024-01-30T04:03:03;31.60;;;16.80;;
78430;SDS011;67727;50.236;22.452;2024-01-30T04:05:30;32.60;;;16.40;;
78430;SDS011;67727;50.236;22.452;2024-01-30T04:07:57;28.90;;;16.20;;
78430;SDS011;67727;50.236;22.452;2024-01-30T04:10:24;31.00;;;14.70;;
78430;SDS011;67727;50.236;22.452;2024-01-30T04:12:51;41.60;;;21.60;;
78430;SDS011;67727;50.236;22.452;2024-01-30T04:15:18;42.40;;;19.80;;
78430;SDS011;67727;50.236;22.452;2024-01-30T04:17:45;52.20;;;23.80;;
78430;SDS011;67727;50.236;22.452;2024-01-30T04:20:14;63.40;;;31.00;;
78430;SDS011;67727;50.236;22.452;2024-01-30T04:22:43;51.00;;;23.80;;
78430;SDS011;67727;50.236;22.452;2024-01-30T04:25:11;34.50;;;18.60;;
78430;SDS011;67727;50.236;22.452;2024-01-30T04:27:41;34.40;;;17.20;;
78430;SDS011;67727;50.236;22.452;2024-01-30T04:30:08;36.10;;;17.80;;
78430;SDS011;67727;50.236;22.452;2024-01-30T04:32:36;33.80;;;15.20;;
78430;SDS011;67727;50.236;22.452;2024-01-30T04:35:03;31.40;;;15.90;;
78430;SDS011;67727;50.236;22.452;2024-01-30T04:37:30;29.30;;;17.00;;
78430;SDS011;67727;50.236;22.452;2024-01-30T04:39:58;32.60;;;17.70;;
78430;SDS011;67727;50.236;22.452;2024-01-30T04:42:25;38.30;;;15.30;;
78430;SDS011;67727;50.236;22.452;2024-01-30T04:44:52;30.50;;;16.10;;
78430;SDS011;67727;50.236;22.452;2024-01-30T04:47:19;35.60;;;17.10;;
78430;SDS011;67727;50.236;22.452;2024-01-30T04:49:46;45.10;;;23.90;;
78430;SDS011;67727;50.236;22.452;2024-01-30T04:52:13;88.90;;;39.30;;
78430;SDS011;67727;50.236;22.452;2024-01-30T04:54:40;99.20;;;46.10;;
78430;SDS011;67727;50.236;22.452;2024-01-30T04:57:07;64.90;;;30.70;;
78430;SDS011;67727;50.236;22.452;2024-01-30T04:59:36;40.50;;;20.70;;
78430;SDS011;67727;50.236;22.452;2024-01-30T05:02:03;36.00;;;18.70;;
78430;SDS011;67727;50.236;22.452;2024-01-30T05:04:30;31.80;;;16.60;;
78430;SDS011;67727;50.236;22.452;2024-01-30T05:06:57;31.00;;;14.90;;
78430;SDS011;67727;50.236;22.452;2024-01-30T05:09:23;25.50;;;14.50;;
78430;SDS011;67727;50.236;22.452;2024-01-30T05:11:50;28.50;;;14.10;;
78430;SDS011;67727;50.236;22.452;2024-01-30T05:14:17;23.20;;;12.90;;
78430;SDS011;67727;50.236;22.452;2024-01-30T05:16:44;28.20;;;14.80;;
78430;SDS011;67727;50.236;22.452;2024-01-30T05:19:13;27.10;;;15.80;;
78430;SDS011;67727;50.236;22.452;2024-01-30T05:21:41;31.80;;;15.30;;
78430;SDS011;67727;50.236;22.452;2024-01-30T05:24:08;31.10;;;14.90;;
78430;SDS011;67727;50.236;22.452;2024-01-30T05:26:36;33.00;;;16.10;;
78430;SDS011;67727;50.236;22.452;2024-01-30T05:29:04;36.40;;;17.80;;
78430;SDS011;67727;50.236;22.452;2024-01-30T05:31:31;37.40;;;17.70;;
78430;SDS011;67727;50.236;22.452;2024-01-30T05:33:59;36.50;;;16.50;;
78430;SDS011;67727;50.236;22.452;2024-01-30T05:36:26;32.60;;;17.90;;
78430;SDS011;67727;50.236;22.452;2024-01-30T05:38:53;34.60;;;17.30;;
78430;SDS011;67727;50.236;22.452;2024-01-30T05:41:20;29.70;;;17.10;;
78430;SDS011;67727;50.236;22.452;2024-01-30T05:43:50;32.60;;;17.30;;
78430;SDS011;67727;50.236;22.452;2024-01-30T05:46:17;35.30;;;16.20;;
78430;SDS011;67727;50.236;22.452;2024-01-30T05:48:44;33.00;;;15.40;;
78430;SDS011;67727;50.236;22.452;2024-01-30T05:51:11;40.60;;;17.10;;
78430;SDS011;67727;50.236;22.452;2024-01-30T05:53:38;35.80;;;17.20;;
78430;SDS011;67727;50.236;22.452;2024-01-30T05:56:05;37.00;;;17.70;;
78430;SDS011;67727;50.236;22.452;2024-01-30T05:58:33;31.10;;;15.30;;
78430;SDS011;67727;50.236;22.452;2024-01-30T06:00:59;31.20;;;18.40;;
78430;SDS011;67727;50.236;22.452;2024-01-30T06:03:26;38.70;;;16.40;;
78430;SDS011;67727;50.236;22.452;2024-01-30T06:05:53;39.00;;;19.10;;
78430;SDS011;67727;50.236;22.452;2024-01-30T06:08:20;39.80;;;18.60;;
78430;SDS011;67727;50.236;22.452;2024-01-30T06:10:47;37.30;;;19.60;;
78430;SDS011;67727;50.236;22.452;2024-01-30T06:13:14;43.10;;;19.30;;
78430;SDS011;67727;50.236;22.452;2024-01-30T06:15:41;34.80;;;17.70;;
78430;SDS011;67727;50.236;22.452;2024-01-30T06:18:08;34.60;;;17.10;;
78430;SDS011;67727;50.236;22.452;2024-01-30T06:20:35;32.60;;;16.60;;
78430;SDS011;67727;50.236;22.452;2024-01-30T06:23:02;30.30;;;14.60;;
78430;SDS011;67727;50.236;22.452;2024-01-30T06:25:29;28.30;;;14.20;;
78430;SDS011;67727;50.236;22.452;2024-01-30T06:27:56;35.70;;;17.10;;
78430;SDS011;67727;50.236;22.452;2024-01-30T06:30:22;37.00;;;16.00;;
78430;SDS011;67727;50.236;22.452;2024-01-30T06:32:49;36.40;;;16.60;;
78430;SDS011;67727;50.236;22.452;2024-01-30T06:35:16;40.30;;;17.90;;
78430;SDS011;67727;50.236;22.452;2024-01-30T06:37:44;41.50;;;19.90;;
78430;SDS011;67727;50.236;22.452;2024-01-30T06:40:12;37.70;;;17.70;;
78430;SDS011;67727;50.236;22.452;2024-01-30T06:42:39;31.70;;;16.00;;
78430;SDS011;67727;50.236;22.452;2024-01-30T06:45:06;33.20;;;16.50;;
78430;SDS011;67727;50.236;22.452;2024-01-30T06:47:34;39.70;;;19.20;;
78430;SDS011;67727;50.236;22.452;2024-01-30T06:50:01;59.00;;;25.60;;
78430;SDS011;67727;50.236;22.452;2024-01-30T06:52:29;70.10;;;27.90;;
78430;SDS011;67727;50.236;22.452;2024-01-30T06:54:55;82.70;;;30.00;;
78430;SDS011;67727;50.236;22.452;2024-01-30T06:57:22;39.60;;;19.80;;
78430;SDS011;67727;50.236;22.452;2024-01-30T06:59:49;38.50;;;19.50;;
78430;SDS011;67727;50.236;22.452;2024-01-30T07:02:16;42.10;;;20.40;;
78430;SDS011;67727;50.236;22.452;2024-01-30T07:04:43;38.60;;;17.30;;
78430;SDS011;67727;50.236;22.452;2024-01-30T07:07:10;39.80;;;19.70;;
78430;SDS011;67727;50.236;22.452;2024-01-30T07:09:39;35.80;;;18.10;;
78430;SDS011;67727;50.236;22.452;2024-01-30T07:12:06;42.70;;;18.50;;
78430;SDS011;67727;50.236;22.452;2024-01-30T07:14:33;34.50;;;16.00;;
78430;SDS011;67727;50.236;22.452;2024-01-30T07:17:00;43.00;;;19.90;;
78430;SDS011;67727;50.236;22.452;2024-01-30T07:19:28;30.90;;;15.40;;
78430;SDS011;67727;50.236;22.452;2024-01-30T07:21:55;46.50;;;23.30;;
78430;SDS011;67727;50.236;22.452;2024-01-30T07:24:21;34.20;;;14.60;;
78430;SDS011;67727;50.236;22.452;2024-01-30T07:26:48;29.80;;;11.80;;
78430;SDS011;67727;50.236;22.452;2024-01-30T07:29:15;41.90;;;19.50;;
78430;SDS011;67727;50.236;22.452;2024-01-30T07:31:42;42.20;;;18.90;;
78430;SDS011;67727;50.236;22.452;2024-01-30T07:34:09;39.70;;;19.30;;
78430;SDS011;67727;50.236;22.452;2024-01-30T07:36:36;51.90;;;21.40;;
78430;SDS011;67727;50.236;22.452;2024-01-30T07:39:02;33.50;;;18.00;;
78430;SDS011;67727;50.236;22.452;2024-01-30T07:41:30;39.70;;;18.20;;
78430;SDS011;67727;50.236;22.452;2024-01-30T07:43:56;45.30;;;20.80;;
78430;SDS011;67727;50.236;22.452;2024-01-30T07:46:24;36.80;;;16.50;;
78430;SDS011;67727;50.236;22.452;2024-01-30T07:48:50;37.30;;;18.90;;
78430;SDS011;67727;50.236;22.452;2024-01-30T07:51:17;37.90;;;19.40;;
78430;SDS011;67727;50.236;22.452;2024-01-30T07:53:44;33.50;;;17.60;;
78430;SDS011;67727;50.236;22.452;2024-01-30T07:56:11;32.30;;;19.40;;
78430;SDS011;67727;50.236;22.452;2024-01-30T07:58:38;39.40;;;20.60;;
78430;SDS011;67727;50.236;22.452;2024-01-30T08:01:05;46.50;;;23.00;;
78430;SDS011;67727;50.236;22.452;2024-01-30T08:03:31;32.50;;;17.40;;
78430;SDS011;67727;50.236;22.452;2024-01-30T08:05:58;31.70;;;17.20;;
78430;SDS011;67727;50.236;22.452;2024-01-30T08:08:25;32.90;;;17.20;;
78430;SDS011;67727;50.236;22.452;2024-01-30T08:10:53;49.90;;;21.60;;
78430;SDS011;67727;50.236;22.452;2024-01-30T08:13:20;57.40;;;22.30;;
78430;SDS011;67727;50.236;22.452;2024-01-30T08:15:47;56.20;;;21.10;;
78430;SDS011;67727;50.236;22.452;2024-01-30T08:18:13;36.30;;;16.10;;
78430;SDS011;67727;50.236;22.452;2024-01-30T08:20:40;30.60;;;13.50;;
78430;SDS011;67727;50.236;22.452;2024-01-30T08:23:07;21.40;;;11.40;;
78430;SDS011;67727;50.236;22.452;2024-01-30T08:25:34;23.50;;;11.90;;
78430;SDS011;67727;50.236;22.452;2024-01-30T08:28:01;21.20;;;12.60;;
78430;SDS011;67727;50.236;22.452;2024-01-30T08:30:28;23.10;;;11.90;;
78430;SDS011;67727;50.236;22.452;2024-01-30T08:32:55;20.60;;;11.10;;
78430;SDS011;67727;50.236;22.452;2024-01-30T08:35:22;17.60;;;9.50;;
78430;SDS011;67727;50.236;22.452;2024-01-30T08:37:49;19.10;;;10.00;;
78430;SDS011;67727;50.236;22.452;2024-01-30T08:40:16;16.00;;;8.80;;
78430;SDS011;67727;50.236;22.452;2024-01-30T08:42:43;14.20;;;7.40;;
78430;SDS011;67727;50.236;22.452;2024-01-30T08:45:10;13.20;;;7.50;;
78430;SDS011;67727;50.236;22.452;2024-01-30T08:47:37;9.40;;;5.40;;
78430;SDS011;67727;50.236;22.452;2024-01-30T08:50:04;8.30;;;5.30;;
78430;SDS011;67727;50.236;22.452;2024-01-30T08:52:31;9.70;;;5.60;;
78430;SDS011;67727;50.236;22.452;2024-01-30T08:54:59;6.70;;;4.40;;
78430;SDS011;67727;50.236;22.452;2024-01-30T08:57:26;9.80;;;4.80;;
78430;SDS011;67727;50.236;22.452;2024-01-30T08:59:54;11.40;;;5.80;;
78430;SDS011;67727;50.236;22.452;2024-01-30T09:02:21;12.30;;;6.80;;
78430;SDS011;67727;50.236;22.452;2024-01-30T09:04:48;9.80;;;6.00;;
78430;SDS011;67727;50.236;22.452;2024-01-30T09:07:15;10.00;;;5.30;;
78430;SDS011;67727;50.236;22.452;2024-01-30T09:09:42;10.80;;;6.30;;
78430;SDS011;67727;50.236;22.452;2024-01-30T09:12:09;14.50;;;8.00;;
78430;SDS011;67727;50.236;22.452;2024-01-30T09:14:38;14.90;;;8.10;;
78430;SDS011;67727;50.236;22.452;2024-01-30T09:17:06;10.90;;;5.90;;
78430;SDS011;67727;50.236;22.452;2024-01-30T09:19:34;16.40;;;7.20;;
78430;SDS011;67727;50.236;22.452;2024-01-30T09:22:01;14.20;;;7.50;;
78430;SDS011;67727;50.236;22.452;2024-01-30T09:24:27;13.80;;;7.10;;
78430;SDS011;67727;50.236;22.452;2024-01-30T09:26:54;16.90;;;8.40;;
78430;SDS011;67727;50.236;22.452;2024-01-30T09:29:21;14.30;;;7.70;;
78430;SDS011;67727;50.236;22.452;2024-01-30T09:31:48;12.60;;;6.10;;
78430;SDS011;67727;50.236;22.452;2024-01-30T09:34:15;13.00;;;7.30;;
78430;SDS011;67727;50.236;22.452;2024-01-30T09:36:42;12.10;;;6.90;;
78430;SDS011;67727;50.236;22.452;2024-01-30T09:39:09;15.50;;;7.20;;
78430;SDS011;67727;50.236;22.452;2024-01-30T09:41:55;13.40;;;7.70;;
78430;SDS011;67727;50.236;22.452;2024-01-30T09:44:37;8.70;;;6.20;;
78430;SDS011;67727;50.236;22.452;2024-01-30T09:47:08;9.60;;;6.10;;
78430;SDS011;67727;50.236;22.452;2024-01-30T09:49:36;12.00;;;6.90;;
78430;SDS011;67727;50.236;22.452;2024-01-30T09:52:07;10.40;;;5.50;;
78430;SDS011;67727;50.236;22.452;2024-01-30T09:54:35;9.90;;;5.80;;
78430;SDS011;67727;50.236;22.452;2024-01-30T09:57:02;11.60;;;6.60;;
78430;SDS011;67727;50.236;22.452;2024-01-30T09:59:29;13.70;;;6.50;;
78430;SDS011;67727;50.236;22.452;2024-01-30T10:01:57;14.10;;;8.30;;
78430;SDS011;67727;50.236;22.452;2024-01-30T10:04:24;24.90;;;13.80;;
78430;SDS011;67727;50.236;22.452;2024-01-30T10:06:51;14.30;;;8.00;;
78430;SDS011;67727;50.236;22.452;2024-01-30T10:09:17;10.70;;;6.30;;
78430;SDS011;67727;50.236;22.452;2024-01-30T10:11:45;12.60;;;6.80;;
78430;SDS011;67727;50.236;22.452;2024-01-30T10:14:12;9.60;;;6.20;;
78430;SDS011;67727;50.236;22.452;2024-01-30T10:16:39;11.70;;;7.00;;
78430;SDS011;67727;50.236;22.452;2024-01-30T10:19:06;8.30;;;5.20;;
78430;SDS011;67727;50.236;22.452;2024-01-30T10:21:33;10.80;;;6.50;;
78430;SDS011;67727;50.236;22.452;2024-01-30T10:23:59;11.20;;;6.40;;
78430;SDS011;67727;50.236;22.452;2024-01-30T10:26:26;11.40;;;6.20;;
78430;SDS011;67727;50.236;22.452;2024-01-30T10:28:55;7.20;;;5.10;;
78430;SDS011;67727;50.236;22.452;2024-01-30T10:31:22;7.80;;;5.90;;
78430;SDS011;67727;50.236;22.452;2024-01-30T10:33:51;7.60;;;4.70;;
78430;SDS011;67727;50.236;22.452;2024-01-30T10:36:18;10.40;;;5.10;;
78430;SDS011;67727;50.236;22.452;2024-01-30T10:38:46;10.60;;;5.40;;
78430;SDS011;67727;50.236;22.452;2024-01-30T10:41:18;12.70;;;7.60;;
78430;SDS011;67727;50.236;22.452;2024-01-30T10:44:02;8.70;;;6.00;;
78430;SDS011;67727;50.236;22.452;2024-01-30T10:46:45;9.40;;;5.90;;
78430;SDS011;67727;50.236;22.452;2024-01-30T10:49:17;9.70;;;6.30;;
78430;SDS011;67727;50.236;22.452;2024-01-30T10:51:44;12.90;;;6.80;;
78430;SDS011;67727;50.236;22.452;2024-01-30T10:54:12;10.90;;;5.00;;
78430;SDS011;67727;50.236;22.452;2024-01-30T10:56:40;6.90;;;4.50;;
78430;SDS011;67727;50.236;22.452;2024-01-30T10:59:09;9.90;;;5.30;;
78430;SDS011;67727;50.236;22.452;2024-01-30T11:01:36;8.80;;;5.90;;
78430;SDS011;67727;50.236;22.452;2024-01-30T11:04:03;11.00;;;6.80;;
78430;SDS011;67727;50.236;22.452;2024-01-30T11:06:31;14.30;;;7.80;;
78430;SDS011;67727;50.236;22.452;2024-01-30T11:09:04;7.90;;;5.70;;
78430;SDS011;67727;50.236;22.452;2024-01-30T11:11:49;7.90;;;4.90;;
78430;SDS011;67727;50.236;22.452;2024-01-30T11:14:30;7.90;;;4.90;;
78430;SDS011;67727;50.236;22.452;2024-01-30T11:16:58;9.70;;;5.80;;
78430;SDS011;67727;50.236;22.452;2024-01-30T11:19:26;9.20;;;5.20;;
78430;SDS011;67727;50.236;22.452;2024-01-30T11:21:53;11.20;;;5.30;;
78430;SDS011;67727;50.236;22.452;2024-01-30T11:24:20;8.30;;;5.10;;
78430;SDS011;67727;50.236;22.452;2024-01-30T11:26:57;13.00;;;7.00;;
78430;SDS011;67727;50.236;22.452;2024-01-30T11:29:25;9.40;;;4.70;;
78430;SDS011;67727;50.236;22.452;2024-01-30T11:31:54;9.50;;;6.60;;
78430;SDS011;67727;50.236;22.452;2024-01-30T11:34:22;10.00;;;5.60;;
78430;SDS011;67727;50.236;22.452;2024-01-30T11:39:31;6.40;;;4.50;;
78430;SDS011;67727;50.236;22.452;2024-01-30T11:41:59;8.30;;;4.90;;
78430;SDS011;67727;50.236;22.452;2024-01-30T11:44:26;9.40;;;5.40;;
78430;SDS011;67727;50.236;22.452;2024-01-30T11:46:53;9.30;;;4.80;;
78430;SDS011;67727;50.236;22.452;2024-01-30T11:49:20;8.70;;;5.40;;
78430;SDS011;67727;50.236;22.452;2024-01-30T11:51:47;9.50;;;6.20;;
78430;SDS011;67727;50.236;22.452;2024-01-30T11:54:17;10.20;;;6.00;;
78430;SDS011;67727;50.236;22.452;2024-01-30T11:56:44;10.30;;;6.00;;
78430;SDS011;67727;50.236;22.452;2024-01-30T11:59:11;9.10;;;5.30;;
78430;SDS011;67727;50.236;22.452;2024-01-30T12:01:38;9.50;;;4.70;;
78430;SDS011;67727;50.236;22.452;2024-01-30T12:04:05;7.50;;;4.80;;
78430;SDS011;67727;50.236;22.452;2024-01-30T12:06:36;11.00;;;5.40;;
78430;SDS011;67727;50.236;22.452;2024-01-30T12:09:03;9.50;;;6.10;;
78430;SDS011;67727;50.236;22.452;2024-01-30T12:11:30;10.70;;;5.90;;
78430;SDS011;67727;50.236;22.452;2024-01-30T12:13:57;8.40;;;5.00;;
78430;SDS011;67727;50.236;22.452;2024-01-30T12:16:25;6.90;;;4.70;;
78430;SDS011;67727;50.236;22.452;2024-01-30T12:18:59;7.50;;;5.20;;
78430;SDS011;67727;50.236;22.452;2024-01-30T12:21:27;14.50;;;7.30;;
78430;SDS011;67727;50.236;22.452;2024-01-30T12:23:56;8.20;;;5.30;;
78430;SDS011;67727;50.236;22.452;2024-01-30T12:26:24;8.90;;;5.80;;
78430;SDS011;67727;50.236;22.452;2024-01-30T12:28:54;9.10;;;5.60;;
78430;SDS011;67727;50.236;22.452;2024-01-30T12:31:25;13.80;;;7.00;;
78430;SDS011;67727;50.236;22.452;2024-01-30T12:33:54;9.30;;;5.70;;
78430;SDS011;67727;50.236;22.452;2024-01-30T12:36:23;7.40;;;5.00;;
78430;SDS011;67727;50.236;22.452;2024-01-30T12:38:50;6.60;;;4.70;;
78430;SDS011;67727;50.236;22.452;2024-01-30T12:41:17;8.20;;;5.50;;
78430;SDS011;67727;50.236;22.452;2024-01-30T12:43:46;9.80;;;6.20;;
78430;SDS011;67727;50.236;22.452;2024-01-30T12:46:16;8.40;;;5.70;;
78430;SDS011;67727;50.236;22.452;2024-01-30T12:48:43;9.70;;;5.50;;
78430;SDS011;67727;50.236;22.452;2024-01-30T12:51:10;11.20;;;5.90;;
78430;SDS011;67727;50.236;22.452;2024-01-30T12:53:37;13.50;;;7.30;;
78430;SDS011;67727;50.236;22.452;2024-01-30T12:56:04;15.60;;;6.60;;
78430;SDS011;67727;50.236;22.452;2024-01-30T12:58:31;16.10;;;8.10;;
78430;SDS011;67727;50.236;22.452;2024-01-30T13:00:58;17.00;;;8.50;;
78430;SDS011;67727;50.236;22.452;2024-01-30T13:03:25;15.40;;;7.90;;
78430;SDS011;67727;50.236;22.452;2024-01-30T13:05:53;10.20;;;6.20;;
78430;SDS011;67727;50.236;22.452;2024-01-30T13:08:20;9.30;;;6.20;;
78430;SDS011;67727;50.236;22.452;2024-01-30T13:10:47;10.40;;;5.40;;
78430;SDS011;67727;50.236;22.452;2024-01-30T13:13:14;10.20;;;5.70;;
78430;SDS011;67727;50.236;22.452;2024-01-30T13:15:41;8.60;;;5.40;;
78430;SDS011;67727;50.236;22.452;2024-01-30T13:18:08;9.40;;;5.60;;
78430;SDS011;67727;50.236;22.452;2024-01-30T13:20:35;8.90;;;4.90;;
78430;SDS011;67727;50.236;22.452;2024-01-30T13:23:02;9.60;;;5.70;;
78430;SDS011;67727;50.236;22.452;2024-01-30T13:25:29;9.40;;;5.30;;
78430;SDS011;67727;50.236;22.452;2024-01-30T13:27:56;9.00;;;5.20;;
78430;SDS011;67727;50.236;22.452;2024-01-30T13:30:23;9.60;;;5.60;;
78430;SDS011;67727;50.236;22.452;2024-01-30T13:32:50;8.00;;;4.90;;
78430;SDS011;67727;50.236;22.452;2024-01-30T13:35:17;7.30;;;4.90;;
78430;SDS011;67727;50.236;22.452;2024-01-30T13:37:44;10.70;;;5.30;;
78430;SDS011;67727;50.236;22.452;2024-01-30T13:40:11;9.10;;;5.20;;
78430;SDS011;67727;50.236;22.452;2024-01-30T13:42:39;8.70;;;5.10;;
78430;SDS011;67727;50.236;22.452;2024-01-30T13:45:06;10.80;;;5.80;;
78430;SDS011;67727;50.236;22.452;2024-01-30T13:47:36;6.40;;;4.20;;
78430;SDS011;67727;50.236;22.452;2024-01-30T13:50:03;8.80;;;5.40;;
78430;SDS011;67727;50.236;22.452;2024-01-30T13:52:30;8.80;;;5.00;;
78430;SDS011;67727;50.236;22.452;2024-01-30T13:54:57;10.50;;;5.60;;
78430;SDS011;67727;50.236;22.452;2024-01-30T13:57:23;15.10;;;7.20;;
78430;SDS011;67727;50.236;22.452;2024-01-30T13:59:50;30.80;;;13.40;;
78430;SDS011;67727;50.236;22.452;2024-01-30T14:02:17;28.20;;;11.80;;
78430;SDS011;67727;50.236;22.452;2024-01-30T14:04:44;15.20;;;7.20;;
78430;SDS011;67727;50.236;22.452;2024-01-30T14:07:11;9.90;;;5.10;;
78430;SDS011;67727;50.236;22.452;2024-01-30T14:09:38;9.10;;;4.80;;
78430;SDS011;67727;50.236;22.452;2024-01-30T14:12:05;19.20;;;7.90;;
78430;SDS011;67727;50.236;22.452;2024-01-30T14:14:32;40.20;;;12.30;;
78430;SDS011;67727;50.236;22.452;2024-01-30T14:16:59;13.60;;;6.90;;
78430;SDS011;67727;50.236;22.452;2024-01-30T14:19:26;8.60;;;5.20;;
78430;SDS011;67727;50.236;22.452;2024-01-30T14:21:53;12.60;;;7.10;;
78430;SDS011;67727;50.236;22.452;2024-01-30T14:24:20;15.50;;;7.60;;
78430;SDS011;67727;50.236;22.452;2024-01-30T14:26:47;10.90;;;5.40;;